createdAt,value
2023-05-17T00:00:49.316Z,2.00
2023-05-17T00:03:15.908Z,1.90
2023-05-17T00:05:42.471Z,2.07
2023-05-17T00:08:09.396Z,2.38
2023-05-17T00:14:44.115Z,1.92
2023-05-17T00:17:10.773Z,2.08
2023-05-17T00:19:37.395Z,2.40
2023-05-17T00:22:04.145Z,2.08
2023-05-17T00:24:30.826Z,2.10
2023-05-17T00:26:57.378Z,1.83
2023-05-17T00:29:23.961Z,1.77
2023-05-17T00:31:50.523Z,2.20
2023-05-17T00:34:17.199Z,2.50
2023-05-17T00:36:44.198Z,1.98
2023-05-17T00:39:10.849Z,1.95
2023-05-17T00:41:37.383Z,2.20
2023-05-17T00:44:04.071Z,2.10
2023-05-17T00:46:30.965Z,2.13
2023-05-17T00:48:57.622Z,2.65
2023-05-17T00:51:24.306Z,2.00
2023-05-17T00:53:51.065Z,2.05
2023-05-17T00:56:17.595Z,1.70
2023-05-17T00:58:44.305Z,2.08
2023-05-17T01:01:11.080Z,1.65
2023-05-17T01:03:38.211Z,1.60
2023-05-17T01:06:06.196Z,1.90
2023-05-17T01:08:35.087Z,2.37
2023-05-17T01:11:21.017Z,1.85
2023-05-17T01:14:18.794Z,2.25
2023-05-17T01:17:06.082Z,2.25
2023-05-17T01:19:45.236Z,2.40
2023-05-17T01:22:23.598Z,2.47
2023-05-17T01:25:10.264Z,2.05
2023-05-17T01:27:40.981Z,2.58
2023-05-17T01:30:13.214Z,2.17
2023-05-17T01:32:42.493Z,1.55
2023-05-17T01:35:11.794Z,2.33
2023-05-17T01:37:39.414Z,2.25
2023-05-17T01:40:08.918Z,2.67
2023-05-17T01:42:40.080Z,2.58
2023-05-17T01:45:23.326Z,3.08
2023-05-17T01:48:10.034Z,2.17
2023-05-17T01:50:39.768Z,2.63
2023-05-17T01:53:11.056Z,2.00
2023-05-17T01:55:48.518Z,2.50
2023-05-17T01:58:15.886Z,2.65
2023-05-17T02:00:46.499Z,2.80
2023-05-17T02:03:17.630Z,2.00
2023-05-17T02:05:44.750Z,2.33
2023-05-17T02:08:11.622Z,2.22
2023-05-17T02:10:38.303Z,2.47
2023-05-17T02:13:05.066Z,2.43
2023-05-17T02:15:32.311Z,1.90
2023-05-17T02:17:59.527Z,2.58
2023-05-17T02:20:26.284Z,2.50
2023-05-17T02:22:52.854Z,1.88
2023-05-17T02:25:19.777Z,2.03
2023-05-17T02:27:46.400Z,2.35
2023-05-17T02:30:15.737Z,1.42
2023-05-17T02:32:44.511Z,1.85
2023-05-17T02:35:13.514Z,2.28
2023-05-17T02:37:40.028Z,2.20
2023-05-17T02:40:09.594Z,1.30
2023-05-17T02:42:36.646Z,1.92
2023-05-17T02:45:03.633Z,1.75
2023-05-17T02:47:30.293Z,1.58
2023-05-17T02:49:56.999Z,1.57
2023-05-17T02:52:24.133Z,1.60
2023-05-17T02:54:51.434Z,1.20
2023-05-17T02:57:18.017Z,1.67
2023-05-17T02:59:44.705Z,2.15
2023-05-17T03:02:11.477Z,1.80
2023-05-17T03:04:38.155Z,1.70
2023-05-17T03:07:06.980Z,1.70
2023-05-17T03:09:34.558Z,1.65
2023-05-17T03:12:02.966Z,1.65
2023-05-17T03:14:32.413Z,1.33
2023-05-17T03:16:59.311Z,1.80
2023-05-17T03:19:26.161Z,1.83
2023-05-17T03:21:53.122Z,1.77
2023-05-17T03:24:21.005Z,1.55
2023-05-17T03:26:48.103Z,1.43
2023-05-17T03:29:14.965Z,1.75
2023-05-17T03:31:43.849Z,1.67
2023-05-17T03:34:10.983Z,1.50
2023-05-17T03:36:39.603Z,1.75
2023-05-17T03:39:06.494Z,1.27
2023-05-17T03:41:33.760Z,1.65
2023-05-17T03:44:01.385Z,1.20
2023-05-17T03:46:28.287Z,1.30
2023-05-17T03:48:54.940Z,1.42
2023-05-17T03:51:21.728Z,1.60
2023-05-17T03:53:50.836Z,0.90
2023-05-17T03:56:18.059Z,2.03
2023-05-17T03:58:44.629Z,1.70
2023-05-17T04:01:11.931Z,1.35
2023-05-17T04:03:39.752Z,1.77
2023-05-17T04:06:07.219Z,1.00
2023-05-17T04:08:35.697Z,1.35
2023-05-17T04:11:10.195Z,1.48
2023-05-17T04:13:40.490Z,1.60
2023-05-17T04:16:08.384Z,1.60
2023-05-17T04:18:37.541Z,1.67
2023-05-17T04:21:05.605Z,1.20
2023-05-17T04:23:34.295Z,1.35
2023-05-17T04:26:04.356Z,1.17
2023-05-17T04:28:35.175Z,1.40
2023-05-17T04:31:02.912Z,1.25
2023-05-17T04:33:29.655Z,1.50
2023-05-17T04:35:57.658Z,1.60
2023-05-17T04:38:25.795Z,1.00
2023-05-17T04:40:52.787Z,1.37
2023-05-17T04:43:19.427Z,1.17
2023-05-17T04:45:46.815Z,1.95
2023-05-17T04:48:13.814Z,1.77
2023-05-17T04:50:40.746Z,1.80
2023-05-17T04:53:07.261Z,1.50
2023-05-17T04:55:36.188Z,2.13
2023-05-17T04:58:03.318Z,1.20
2023-05-17T05:00:31.141Z,1.45
2023-05-17T05:03:05.553Z,1.67
2023-05-17T05:05:33.645Z,1.20
2023-05-17T05:08:00.428Z,1.20
2023-05-17T05:10:29.069Z,1.73
2023-05-17T05:12:56.448Z,1.50
2023-05-17T05:15:23.484Z,1.35
2023-05-17T05:17:55.320Z,1.33
2023-05-17T05:20:22.217Z,1.40
2023-05-17T05:22:48.917Z,1.88
2023-05-17T05:25:17.441Z,1.58
2023-05-17T05:27:44.612Z,1.73
2023-05-17T05:30:13.687Z,1.40
2023-05-17T05:32:40.410Z,1.30
2023-05-17T05:35:07.578Z,1.33
2023-05-17T05:37:34.236Z,2.22
2023-05-17T05:40:00.793Z,2.25
2023-05-17T05:42:29.634Z,1.43
2023-05-17T05:44:56.233Z,1.52
2023-05-17T05:47:25.113Z,1.40
2023-05-17T05:49:52.236Z,1.83
2023-05-17T05:52:18.844Z,1.17
2023-05-17T05:54:45.902Z,1.60
2023-05-17T05:57:12.496Z,1.83
2023-05-17T05:59:40.318Z,1.50
2023-05-17T06:02:06.939Z,0.85
2023-05-17T06:04:44.598Z,1.63
2023-05-17T06:07:13.346Z,1.30
2023-05-17T06:09:42.135Z,1.38
2023-05-17T06:12:08.965Z,1.05
2023-05-17T06:14:37.458Z,1.50
2023-05-17T06:17:04.494Z,1.23
2023-05-17T06:19:31.030Z,1.13
2023-05-17T06:21:57.687Z,0.88
2023-05-17T06:24:24.193Z,1.13
2023-05-17T06:26:50.761Z,0.88
2023-05-17T06:29:17.402Z,1.75
2023-05-17T06:31:43.884Z,1.10
2023-05-17T06:34:10.540Z,0.77
2023-05-17T06:36:38.593Z,0.68
2023-05-17T06:39:05.564Z,0.98
2023-05-17T06:41:32.449Z,1.08
2023-05-17T06:43:58.976Z,0.73
2023-05-17T06:46:25.605Z,0.98
2023-05-17T06:48:52.189Z,0.55
2023-05-17T06:51:18.854Z,0.60
2023-05-17T06:53:45.447Z,0.70
2023-05-17T06:56:11.944Z,0.80
2023-05-17T06:58:38.581Z,1.02
2023-05-17T07:01:06.068Z,0.73
2023-05-17T07:03:32.743Z,0.73
2023-05-17T07:05:59.761Z,0.90
2023-05-17T07:08:26.301Z,0.80
2023-05-17T07:10:53.279Z,0.50
2023-05-17T07:13:21.818Z,0.57
2023-05-17T07:15:48.429Z,0.70
2023-05-17T07:18:15.046Z,0.77
2023-05-17T07:20:41.734Z,0.80
2023-05-17T07:23:08.444Z,0.70
2023-05-17T07:25:38.661Z,0.52
2023-05-17T07:28:05.464Z,0.52
2023-05-17T07:30:32.051Z,0.90
2023-05-17T07:32:58.690Z,0.77
2023-05-17T07:35:25.392Z,0.73
2023-05-17T07:37:51.968Z,0.45
2023-05-17T07:40:18.566Z,1.10
2023-05-17T07:42:45.115Z,0.60
2023-05-17T07:45:11.867Z,1.03
2023-05-17T07:47:38.524Z,0.77
2023-05-17T07:50:05.717Z,0.68
2023-05-17T07:52:32.258Z,0.57
2023-05-17T07:54:58.829Z,0.70
2023-05-17T07:57:25.529Z,0.70
2023-05-17T07:59:52.072Z,0.77
2023-05-17T08:02:18.639Z,1.13
2023-05-17T08:04:45.864Z,1.45
2023-05-17T08:07:12.407Z,0.90
2023-05-17T08:09:40.218Z,1.00
2023-05-17T08:12:06.889Z,1.10
2023-05-17T08:14:34.152Z,0.95
2023-05-17T08:17:00.736Z,1.10
2023-05-17T08:19:28.496Z,1.25
2023-05-17T08:21:57.341Z,1.33
2023-05-17T08:24:23.869Z,0.90
2023-05-17T08:26:50.868Z,0.82
2023-05-17T08:29:17.396Z,0.60
2023-05-17T08:31:44.105Z,0.80
2023-05-17T08:34:10.694Z,0.67
2023-05-17T08:36:37.942Z,0.50
2023-05-17T08:39:05.038Z,0.70
2023-05-17T08:41:31.828Z,0.60
2023-05-17T08:43:59.106Z,0.50
2023-05-17T08:46:26.763Z,0.60
2023-05-17T08:48:53.678Z,0.63
2023-05-17T08:51:21.076Z,0.60
2023-05-17T08:53:50.184Z,0.60
2023-05-17T08:56:19.518Z,0.95
2023-05-17T09:01:19.095Z,1.23
2023-05-17T09:03:49.738Z,0.77
2023-05-17T09:06:20.339Z,0.80
2023-05-17T09:08:47.577Z,0.80
2023-05-17T09:11:24.847Z,0.77
2023-05-17T09:13:51.693Z,0.50
2023-05-17T09:16:21.267Z,0.80
2023-05-17T09:18:55.845Z,0.93
2023-05-17T09:21:23.746Z,1.00
2023-05-17T09:24:05.413Z,0.53
2023-05-17T09:26:44.107Z,0.70
2023-05-17T09:29:12.347Z,0.55
2023-05-17T09:31:39.665Z,0.90
2023-05-17T09:34:09.525Z,0.57
2023-05-17T09:36:37.483Z,1.13
2023-05-17T09:39:06.046Z,0.50
2023-05-17T09:41:43.492Z,1.08
2023-05-17T09:44:11.932Z,0.50
2023-05-17T09:46:42.748Z,1.10
2023-05-17T09:49:09.411Z,1.00
2023-05-17T09:51:38.829Z,0.90
2023-05-17T09:54:06.944Z,1.10
2023-05-17T09:56:35.162Z,0.93
2023-05-17T09:59:02.525Z,0.85
2023-05-17T10:01:30.934Z,1.30
2023-05-17T10:04:02.910Z,0.90
2023-05-17T10:06:44.051Z,1.40
2023-05-17T10:09:14.574Z,1.20
2023-05-17T10:11:46.132Z,1.30
2023-05-17T10:14:28.564Z,1.00
2023-05-17T10:16:56.316Z,3.05
2023-05-17T10:19:24.629Z,1.38
2023-05-17T10:21:54.793Z,1.10
2023-05-17T10:24:23.117Z,1.65
2023-05-17T10:26:52.801Z,0.53
2023-05-17T10:29:21.253Z,0.90
2023-05-17T10:31:50.309Z,0.95
2023-05-17T10:34:18.798Z,1.23
2023-05-17T10:36:46.407Z,1.35
2023-05-17T10:39:13.090Z,1.00
2023-05-17T10:41:43.192Z,1.10
2023-05-17T10:44:13.761Z,0.90
2023-05-17T10:46:40.661Z,0.77
2023-05-17T10:49:07.429Z,1.33
2023-05-17T10:51:36.425Z,1.50
2023-05-17T10:54:12.890Z,1.10
2023-05-17T10:56:48.125Z,1.02
2023-05-17T10:59:17.686Z,1.40
2023-05-17T11:02:06.271Z,1.10
2023-05-17T11:04:38.431Z,1.10
2023-05-17T11:07:17.439Z,1.20
2023-05-17T11:09:46.252Z,0.90
2023-05-17T11:12:14.175Z,0.93
2023-05-17T11:14:54.338Z,1.17
2023-05-17T11:17:24.168Z,1.40
2023-05-17T11:20:06.752Z,0.93
2023-05-17T11:23:06.937Z,0.70
2023-05-17T11:25:37.807Z,1.70
2023-05-17T11:28:19.470Z,1.30
2023-05-17T11:30:52.003Z,1.33
2023-05-17T11:33:32.893Z,1.20
2023-05-17T11:36:05.352Z,0.95
2023-05-17T11:38:32.876Z,1.60
2023-05-17T11:41:26.684Z,1.23
2023-05-17T11:43:54.413Z,0.90
2023-05-17T11:46:23.137Z,1.23
2023-05-17T11:48:54.133Z,0.98
2023-05-17T11:51:24.390Z,2.47
2023-05-17T11:53:54.348Z,1.52
2023-05-17T11:56:29.100Z,1.13
2023-05-17T11:59:04.143Z,0.80
2023-05-17T12:01:43.671Z,1.30
2023-05-17T12:04:10.240Z,1.55
2023-05-17T12:06:37.153Z,1.02
2023-05-17T12:09:06.148Z,1.40
2023-05-17T12:11:33.663Z,1.42
2023-05-17T12:14:00.578Z,0.98
2023-05-17T12:16:29.623Z,1.27
2023-05-17T12:18:58.436Z,1.23
2023-05-17T12:21:25.283Z,1.07
2023-05-17T12:23:52.490Z,0.90
2023-05-17T12:26:23.528Z,1.55
2023-05-17T12:28:56.173Z,1.02
2023-05-17T12:31:28.239Z,1.33
2023-05-17T12:33:56.279Z,0.77
2023-05-17T12:36:23.384Z,1.38
2023-05-17T12:38:50.561Z,1.33
2023-05-17T12:41:17.769Z,1.40
2023-05-17T12:43:45.498Z,1.20
2023-05-17T12:46:13.818Z,1.53
2023-05-17T12:48:42.244Z,1.45
2023-05-17T12:51:23.293Z,1.73
2023-05-17T12:53:51.603Z,1.67
2023-05-17T12:56:22.286Z,1.00
2023-05-17T12:59:14.276Z,1.30
2023-05-17T13:01:47.662Z,1.20
2023-05-17T13:04:15.748Z,1.45
2023-05-17T13:06:53.635Z,1.60
2023-05-17T13:09:22.202Z,1.70
2023-05-17T13:11:53.305Z,1.40
2023-05-17T13:14:45.759Z,1.90
2023-05-17T13:17:17.658Z,1.60
2023-05-17T13:19:44.381Z,1.58
2023-05-17T13:22:11.053Z,2.17
2023-05-17T13:24:39.621Z,1.07
2023-05-17T13:27:07.145Z,1.52
2023-05-17T13:29:39.443Z,1.40
2023-05-17T13:32:09.059Z,1.83
2023-05-17T13:34:36.274Z,1.80
2023-05-17T13:37:03.148Z,2.00
2023-05-17T13:39:29.720Z,1.55
2023-05-17T13:41:56.497Z,1.73
2023-05-17T13:44:23.191Z,1.58
2023-05-17T13:46:49.734Z,1.20
2023-05-17T13:49:17.255Z,1.90
2023-05-17T13:51:44.108Z,1.70
2023-05-17T13:54:11.565Z,1.27
2023-05-17T13:56:38.193Z,1.20
2023-05-17T13:59:04.881Z,1.48
2023-05-17T14:01:31.475Z,1.77
2023-05-17T14:03:58.955Z,1.40
2023-05-17T14:06:25.713Z,1.77
2023-05-17T14:08:53.898Z,1.25
2023-05-17T14:11:21.164Z,1.30
2023-05-17T14:13:47.672Z,1.40
2023-05-17T14:16:14.551Z,1.50
2023-05-17T14:18:41.351Z,1.33
2023-05-17T14:21:08.313Z,1.50
2023-05-17T14:23:36.272Z,1.40
2023-05-17T14:26:07.386Z,1.27
2023-05-17T14:28:37.753Z,1.40
2023-05-17T14:31:08.683Z,1.60
2023-05-17T14:33:35.859Z,1.30
2023-05-17T14:36:06.600Z,1.33
2023-05-17T14:38:33.233Z,1.20
2023-05-17T14:41:02.610Z,1.50
2023-05-17T14:43:29.187Z,1.30
2023-05-17T14:45:55.810Z,1.42
2023-05-17T14:48:22.836Z,1.27
2023-05-17T14:50:49.705Z,1.30
2023-05-17T14:53:16.565Z,1.17
2023-05-17T14:55:43.367Z,1.65
2023-05-17T14:58:13.056Z,1.00
2023-05-17T15:00:41.558Z,1.60
2023-05-17T15:03:08.690Z,1.00
2023-05-17T15:05:35.365Z,1.25
2023-05-17T15:08:02.259Z,1.30
2023-05-17T15:10:29.908Z,1.13
2023-05-17T15:12:56.474Z,1.60
2023-05-17T15:15:23.107Z,1.13
2023-05-17T15:17:49.715Z,1.20
2023-05-17T15:20:17.047Z,1.27
2023-05-17T15:22:44.454Z,1.38
2023-05-17T15:25:11.194Z,1.08
2023-05-17T15:27:37.671Z,1.67
2023-05-17T15:30:04.618Z,1.17
2023-05-17T15:32:31.655Z,1.65
2023-05-17T15:34:59.125Z,1.40
2023-05-17T15:37:25.696Z,1.40
2023-05-17T15:39:52.698Z,1.50
2023-05-17T15:42:19.240Z,1.45
2023-05-17T15:44:45.796Z,1.60
2023-05-17T15:47:12.368Z,1.63
2023-05-17T15:49:40.768Z,1.15
2023-05-17T15:52:07.434Z,1.33
2023-05-17T15:54:34.042Z,1.50
2023-05-17T15:57:00.718Z,1.48
2023-05-17T15:59:28.198Z,1.45
2023-05-17T16:01:54.785Z,1.50
2023-05-17T16:04:21.319Z,1.13
2023-05-17T16:06:47.938Z,1.20
2023-05-17T16:09:14.620Z,1.90
2023-05-17T16:11:41.591Z,1.10
2023-05-17T16:14:09.033Z,1.45
2023-05-17T16:16:35.825Z,0.90
2023-05-17T16:19:04.475Z,1.83
2023-05-17T16:21:31.412Z,1.42
2023-05-17T16:23:58.153Z,1.27
2023-05-17T16:26:25.110Z,1.30
2023-05-17T16:28:52.036Z,1.37
2023-05-17T16:31:18.661Z,1.55
2023-05-17T16:33:45.314Z,1.25
2023-05-17T16:36:12.611Z,1.38
2023-05-17T16:38:39.396Z,1.33
2023-05-17T16:41:06.071Z,1.10
2023-05-17T16:43:32.698Z,1.70
2023-05-17T16:45:59.323Z,0.90
2023-05-17T16:48:26.011Z,1.27
2023-05-17T16:50:53.000Z,1.60
2023-05-17T16:53:19.630Z,1.23
2023-05-17T16:55:46.250Z,1.20
2023-05-17T16:58:13.143Z,1.52
2023-05-17T17:00:39.793Z,1.30
2023-05-17T17:03:09.252Z,1.48
2023-05-17T17:05:36.513Z,1.13
2023-05-17T17:08:03.272Z,0.93
2023-05-17T17:10:30.049Z,1.33
2023-05-17T17:12:57.210Z,1.13
2023-05-17T17:15:23.880Z,1.00
2023-05-17T17:17:50.505Z,1.10
2023-05-17T17:20:17.697Z,1.33
2023-05-17T17:22:44.310Z,1.27
2023-05-17T17:25:10.878Z,1.10
2023-05-17T17:27:37.438Z,1.42
2023-05-17T17:30:04.435Z,0.90
2023-05-17T17:32:31.526Z,1.40
2023-05-17T17:34:58.392Z,0.77
2023-05-17T17:37:25.011Z,1.05
2023-05-17T17:39:51.661Z,0.90
2023-05-17T17:42:19.566Z,1.27
2023-05-17T17:44:46.415Z,1.17
2023-05-17T17:47:13.319Z,1.30
2023-05-17T17:49:40.067Z,0.90
2023-05-17T17:52:06.717Z,1.13
2023-05-17T17:54:33.193Z,1.30
2023-05-17T17:56:59.792Z,0.88
2023-05-17T17:59:26.362Z,1.10
2023-05-17T18:01:53.085Z,1.33
2023-05-17T18:04:19.727Z,0.98
2023-05-17T18:06:46.410Z,1.00
2023-05-17T18:09:12.957Z,1.00
2023-05-17T18:11:39.495Z,1.15
2023-05-17T18:14:07.070Z,0.70
2023-05-17T18:16:33.969Z,1.05
2023-05-17T18:19:01.034Z,1.00
2023-05-17T18:21:29.380Z,0.68
2023-05-17T18:23:56.093Z,1.27
2023-05-17T18:26:23.305Z,0.80
2023-05-17T18:28:51.202Z,1.35
2023-05-17T18:31:18.413Z,0.80
2023-05-17T18:33:45.352Z,1.10
2023-05-17T18:36:11.924Z,0.80
2023-05-17T18:38:38.567Z,0.95
2023-05-17T18:41:05.202Z,1.00
2023-05-17T18:43:31.737Z,1.33
2023-05-17T18:45:58.341Z,0.73
2023-05-17T18:48:25.225Z,1.00
2023-05-17T18:50:51.854Z,0.88
2023-05-17T18:53:18.435Z,0.60
2023-05-17T18:55:44.996Z,1.13
2023-05-17T18:58:11.533Z,0.65
2023-05-17T19:00:39.344Z,1.50
2023-05-17T19:03:06.047Z,1.25
2023-05-17T19:05:32.624Z,0.80
2023-05-17T19:07:59.163Z,0.77
2023-05-17T19:10:26.442Z,0.93
2023-05-17T19:12:53.054Z,1.48
2023-05-17T19:15:19.660Z,1.60
2023-05-17T19:17:46.395Z,1.17
2023-05-17T19:20:13.183Z,1.27
2023-05-17T19:22:39.754Z,0.70
2023-05-17T19:25:06.869Z,0.88
2023-05-17T19:27:33.469Z,1.33
2023-05-17T19:29:59.992Z,0.85
2023-05-17T19:32:27.010Z,1.00
2023-05-17T19:34:54.827Z,0.70
2023-05-17T19:37:21.432Z,1.10
2023-05-17T19:39:47.966Z,0.90
2023-05-17T19:42:14.555Z,0.80
2023-05-17T19:44:41.171Z,1.27
2023-05-17T19:47:07.712Z,0.80
2023-05-17T19:49:34.323Z,1.00
2023-05-17T19:52:02.273Z,1.00
2023-05-17T19:54:29.810Z,0.88
2023-05-17T19:56:57.099Z,0.70
2023-05-17T19:59:23.637Z,1.00
2023-05-17T20:01:50.693Z,1.00
2023-05-17T20:04:17.451Z,0.77
2023-05-17T20:06:44.148Z,0.77
2023-05-17T20:09:10.771Z,0.80
2023-05-17T20:11:37.482Z,0.63
2023-05-17T20:14:04.209Z,1.20
2023-05-17T20:16:31.042Z,0.55
2023-05-17T20:18:58.516Z,0.80
2023-05-17T20:21:26.353Z,0.83
2023-05-17T20:24:00.602Z,0.70
2023-05-17T20:26:31.444Z,0.85
2023-05-17T20:28:59.037Z,1.20
2023-05-17T20:31:26.022Z,0.88
2023-05-17T20:33:52.990Z,0.97
2023-05-17T20:36:19.596Z,0.80
2023-05-17T20:38:46.205Z,0.85
2023-05-17T20:41:14.790Z,0.70
2023-05-17T20:43:45.148Z,1.17
2023-05-17T20:46:13.248Z,1.00
2023-05-17T20:48:42.695Z,0.85
2023-05-17T20:51:10.352Z,0.90
2023-05-17T20:53:37.374Z,0.60
2023-05-17T20:56:04.051Z,1.00
2023-05-17T20:58:31.041Z,0.70
2023-05-17T21:00:59.840Z,0.68
2023-05-17T21:03:33.873Z,1.13
2023-05-17T21:06:05.013Z,0.80
2023-05-17T21:08:34.735Z,1.00
2023-05-17T21:11:02.650Z,1.37
2023-05-17T21:13:29.237Z,1.00
2023-05-17T21:15:56.250Z,0.90
2023-05-17T21:18:26.271Z,1.08
2023-05-17T21:20:53.382Z,0.80
2023-05-17T21:23:20.166Z,0.93
2023-05-17T21:25:47.390Z,1.00
2023-05-17T21:28:14.063Z,1.10
2023-05-17T21:30:40.670Z,0.80
2023-05-17T21:33:07.382Z,0.90
2023-05-17T21:35:33.919Z,0.73
2023-05-17T21:38:00.522Z,1.08
2023-05-17T21:40:27.300Z,1.00
2023-05-17T21:42:53.879Z,0.90
2023-05-17T21:45:20.564Z,1.00
2023-05-17T21:47:47.113Z,1.00
2023-05-17T21:50:13.831Z,0.93
2023-05-17T21:52:40.530Z,0.98
2023-05-17T21:55:07.776Z,1.10
2023-05-17T21:57:36.333Z,1.30
2023-05-17T22:00:05.330Z,1.20
2023-05-17T22:02:34.996Z,1.05
2023-05-17T22:05:01.896Z,1.25
2023-05-17T22:07:28.832Z,1.02
2023-05-17T22:09:55.426Z,0.93
2023-05-17T22:12:25.503Z,0.83
2023-05-17T22:14:56.986Z,0.77
2023-05-17T22:17:32.350Z,1.60
2023-05-17T22:20:09.531Z,0.82
2023-05-17T22:22:37.356Z,1.00
2023-05-17T22:25:04.842Z,1.00
2023-05-17T22:27:31.464Z,0.80
2023-05-17T22:29:58.164Z,1.20
2023-05-17T22:32:24.784Z,1.17
2023-05-17T22:34:52.838Z,1.08
2023-05-17T22:37:22.559Z,1.23
2023-05-17T22:39:49.504Z,1.10
2023-05-17T22:42:16.285Z,1.27
2023-05-17T22:44:42.939Z,0.93
2023-05-17T22:47:14.385Z,1.20
2023-05-17T22:49:41.501Z,0.87
2023-05-17T22:52:08.571Z,1.27
2023-05-17T22:54:36.746Z,1.25
2023-05-17T22:57:04.385Z,1.15
2023-05-17T22:59:32.719Z,1.23
2023-05-17T23:01:59.271Z,1.07
2023-05-17T23:04:26.167Z,1.23
2023-05-17T23:07:02.617Z,1.05
2023-05-17T23:09:30.086Z,1.30
2023-05-17T23:11:59.398Z,1.38
2023-05-17T23:14:25.932Z,1.50
2023-05-17T23:16:52.533Z,1.10
2023-05-17T23:19:20.856Z,1.42
2023-05-17T23:21:48.974Z,1.15
2023-05-17T23:24:15.618Z,1.35
2023-05-17T23:26:42.091Z,1.93
2023-05-17T23:29:10.644Z,1.27
2023-05-17T23:31:37.580Z,1.05
2023-05-17T23:34:04.479Z,1.30
2023-05-17T23:36:31.139Z,1.48
2023-05-17T23:38:57.628Z,1.57
2023-05-17T23:41:25.391Z,1.30
2023-05-17T23:43:56.918Z,1.67
2023-05-17T23:46:23.637Z,1.55
2023-05-17T23:48:50.611Z,1.42
2023-05-17T23:51:18.794Z,1.33
2023-05-17T23:53:45.906Z,1.50
2023-05-17T23:56:12.468Z,1.83
2023-05-17T23:58:38.988Z,1.40
